Airfield :
LOGIN :

Register | Disclaimer

   EN    FR    IT 

 










Legend :    VFR   Marginal VFR   IFR   Intensive IFR   Very Intensive IFR
Visi :
Ceiling :
>= 8 km
>= 3000ft
5 to 8 km
1000 to 3000 ft
1500m to 5 km
500 to 1000 ft
800 to 1500m
200 to 500 ft
< 800m
< 200 ft
Symbols :   Thunderstorms  Fog  Heavy snow  Heavy precipitations  Wind > 20 kt
SIGMETs :     Misc.  Thunderstorms  Icing  Turbulence  Mountain Waves  Volcanic Ashes






- Airport Elevation : 138 ft
- IATA code : BIO


LEBB - Bilbao

CURRENT METAR :
  • 190300Z AUTO 02007KT 330V070 9000 FEW015 SCT021 BKN028 09/07 Q1024

EXPIRED METARs :
  • 190230Z AUTO 02009KT 350V070 9000 SCT019 BKN024 BKN029 09/07 Q1024
  • 190200Z AUTO 02011KT 340V060 8000 SCT025 BKN036 OVC055 09/08 Q1023
  • 190130Z AUTO 01011KT 330V050 8000 SCT032 BKN039 BKN046 10/09 Q1023
  • 190100Z AUTO 27010G22KT 210V300 3200 BR SCT020 BKN028 BKN038 10/09 Q1022
  • 190030Z AUTO 28005KT 9999 FEW027 BKN045 09/08 Q1022

TAF AMD TAF LEBB
Valid from the 19 at 02:00 until the 20 at 00:00 UTC


190211Z 1902/1924 04008KT 9999 BKN035 TX10/1914Z TN05/1908Z
PROB30
TEMPO 1902/1906 RA
TEMPO 1906/1924 05015G25KT



MET'MAP, your aeronautical weather chart ! - Copyright ORBIFLY December 2007 - Disclaimer

ORBIFLY MET'MAP TEAM :

Programming & Development : Alexandra Zaïnal
Concept & original design : Baudouin d'Aumeries
Assistance for programming : Marc-Olivier Méhu
Technical & hardware support : Manuel Goepfert

Contact : metmap@orbifly.com




SOURCES & CREDITS :

   NOAA